Time;durP1;ratioP1;P1;durP2;ratioP2;P2;SDS_P1;SDS_P2;PMS_P1;PMS_P2;Temp;Humidity;BMP_temperature;BMP_pressure;BME280_temperature;BME280_humidity;BME280_pressure;Samples;Min_cycle;Max_cycle;Signal;HPM_P1;HPM_P2
2022/12/13 00:02:14;;;;;;;16.23;9.98;;;0.00;1.00;;;;;;5135387;27;20234;-76
2022/12/13 00:04:47;;;;;;;15.00;9.20;;;0.10;1.00;;;;;;5132983;27;20287;-79
2022/12/13 00:07:14;;;;;;;16.85;9.40;;;0.10;1.00;;;;;;5133281;27;20725;-81
2022/12/13 00:09:46;;;;;;;13.80;9.50;;;0.10;1.00;;;;;;5139773;27;20220;-80
2022/12/13 00:12:16;;;;;;;15.32;9.65;;;0.10;1.00;;;;;;5135037;27;20241;-78
2022/12/13 00:14:45;;;;;;;15.93;9.10;;;0.10;1.00;;;;;;5140440;27;20223;-82
2022/12/13 00:17:13;;;;;;;17.35;10.18;;;0.10;1.00;;;;;;5140835;27;20509;-78
2022/12/13 00:19:47;;;;;;;17.75;9.90;;;0.10;1.00;;;;;;5133511;27;20242;-78
2022/12/13 00:22:15;;;;;;;17.85;10.32;;;0.10;1.00;;;;;;5136946;27;20222;-82
2022/12/13 00:24:45;;;;;;;17.27;10.25;;;0.00;1.00;;;;;;5114542;27;20212;-81
2022/12/13 00:27:12;;;;;;;15.65;10.05;;;0.00;1.00;;;;;;5126112;27;20298;-81
2022/12/13 00:29:48;;;;;;;19.48;12.20;;;-0.10;1.00;;;;;;5137918;27;20314;-81
2022/12/13 00:32:15;;;;;;;18.70;11.43;;;-0.10;1.00;;;;;;5137344;27;20269;-81
2022/12/13 00:34:45;;;;;;;16.55;9.82;;;-0.10;1.00;;;;;;5127494;27;20322;-81
2022/12/13 00:37:16;;;;;;;17.58;10.23;;;-0.10;1.00;;;;;;5111114;27;20231;-79
2022/12/13 00:39:43;;;;;;;19.05;10.75;;;-0.10;1.00;;;;;;5137396;27;20256;-79
2022/12/13 00:42:10;;;;;;;18.00;10.70;;;0.00;1.00;;;;;;5123822;27;20241;-77
2022/12/13 00:44:41;;;;;;;17.10;10.45;;;0.00;1.00;;;;;;5119335;27;20233;-78
2022/12/13 00:47:12;;;;;;;19.38;11.60;;;0.00;1.00;;;;;;5132412;27;20225;-78
2022/12/13 00:49:41;;;;;;;18.88;10.88;;;-0.10;1.00;;;;;;5122180;27;21110;-78
2022/12/13 00:52:11;;;;;;;17.08;11.32;;;-0.10;1.00;;;;;;5134202;27;20248;-79
2022/12/13 00:54:40;;;;;;;20.02;10.85;;;-0.20;1.00;;;;;;5137340;27;20232;-78
2022/12/13 00:57:12;;;;;;;18.25;10.00;;;-0.10;1.00;;;;;;5129440;27;20229;-79
2022/12/13 00:59:43;;;;;;;19.75;11.13;;;-0.10;1.00;;;;;;5142243;27;20272;-78
2022/12/13 01:02:12;;;;;;;19.73;10.80;;;-0.10;1.00;;;;;;5119560;27;20263;-80
2022/12/13 01:04:41;;;;;;;18.98;10.63;;;-0.10;1.00;;;;;;5112961;27;20246;-78
2022/12/13 01:07:12;;;;;;;18.00;10.07;;;-0.10;1.00;;;;;;5129575;27;20215;-78
2022/12/13 01:09:41;;;;;;;17.45;11.02;;;-0.10;1.00;;;;;;5137781;27;20234;-79
2022/12/13 01:12:11;;;;;;;16.08;9.63;;;-0.10;1.00;;;;;;5139154;27;21584;-79
2022/12/13 01:14:41;;;;;;;17.23;10.18;;;-0.10;1.00;;;;;;5138587;27;20313;-76
2022/12/13 01:17:11;;;;;;;17.50;11.00;;;-0.20;1.00;;;;;;5139169;27;20332;-77
2022/12/13 01:19:41;;;;;;;17.02;10.50;;;-0.10;1.00;;;;;;5135873;27;20238;-79
2022/12/13 01:22:21;;;;;;;19.60;9.68;;;-0.10;1.00;;;;;;5135512;27;20242;-77
2022/12/13 01:24:56;;;;;;;17.63;10.60;;;-0.20;1.00;;;;;;5137633;27;20220;-77
2022/12/13 01:27:24;;;;;;;17.60;9.48;;;-0.10;1.00;;;;;;5119831;27;20231;-80
2022/12/13 01:29:53;;;;;;;16.00;9.57;;;-0.10;1.00;;;;;;5134566;27;20245;-79
2022/12/13 01:32:20;;;;;;;14.75;8.93;;;-0.20;1.00;;;;;;5116766;27;20247;-78
2022/12/13 01:34:49;;;;;;;16.55;10.05;;;-0.20;1.00;;;;;;5133499;27;20236;-78
2022/12/13 01:37:19;;;;;;;20.38;10.32;;;-0.10;1.00;;;;;;5131199;27;20263;-81
2022/12/13 01:39:55;;;;;;;16.27;9.93;;;-0.20;1.00;;;;;;5118198;27;20292;-80
2022/12/13 01:42:24;;;;;;;18.08;9.40;;;-0.20;1.00;;;;;;5129182;27;20230;-77
2022/12/13 01:45:06;;;;;;;16.52;9.73;;;-0.10;1.00;;;;;;5133457;27;20288;-76
2022/12/13 01:47:38;;;;;;;14.77;8.43;;;-0.10;1.00;;;;;;5128627;27;20229;-79
2022/12/13 01:50:12;;;;;;;16.17;9.60;;;-0.10;1.00;;;;;;5131112;27;21073;-78
2022/12/13 01:52:54;;;;;;;16.40;9.45;;;-0.10;1.00;;;;;;5136617;27;20250;-79
2022/12/13 01:55:25;;;;;;;15.65;9.13;;;-0.10;1.00;;;;;;5135948;27;20229;-79
2022/12/13 01:57:56;;;;;;;15.93;9.00;;;-0.10;1.00;;;;;;5136234;27;20262;-76
2022/12/13 02:00:25;;;;;;;20.45;10.30;;;-0.10;1.00;;;;;;5136187;27;20729;-80
2022/12/13 02:03:01;;;;;;;16.40;9.43;;;0.00;1.00;;;;;;5133446;27;21419;-79
2022/12/13 02:05:40;;;;;;;17.45;11.60;;;0.00;1.00;;;;;;5135409;27;21027;-78
2022/12/13 02:08:21;;;;;;;17.40;9.95;;;0.00;1.00;;;;;;5137681;27;20924;-78
2022/12/13 02:10:53;;;;;;;16.42;9.82;;;0.00;1.00;;;;;;5137226;27;20328;-78
2022/12/13 02:13:22;;;;;;;18.70;11.88;;;0.00;1.00;;;;;;5137341;27;20259;-78
2022/12/13 02:16:14;;;;;;;18.67;12.45;;;0.00;1.00;;;;;;5137084;27;20734;-77
2022/12/13 02:19:01;;;;;;;19.67;11.98;;;0.00;1.00;;;;;;5141485;27;20226;-80
2022/12/13 02:21:38;;;;;;;16.80;10.48;;;0.10;1.00;;;;;;5123915;27;21132;-79
2022/12/13 02:24:33;;;;;;;17.30;10.75;;;0.10;1.00;;;;;;5139972;27;20234;-79
2022/12/13 02:27:10;;;;;;;18.33;10.40;;;0.10;1.00;;;;;;5128542;27;20231;-77
2022/12/13 02:30:16;;;;;;;18.48;11.15;;;0.10;1.00;;;;;;5138457;27;20225;-78
2022/12/13 02:33:17;;;;;;;16.65;9.77;;;0.00;1.00;;;;;;5137491;27;20353;-79
2022/12/13 02:35:54;;;;;;;18.10;10.90;;;0.00;1.00;;;;;;5090838;27;20661;-78
2022/12/13 02:38:36;;;;;;;16.98;10.52;;;0.00;1.00;;;;;;5139441;27;20253;-79
2022/12/13 02:41:15;;;;;;;18.20;10.70;;;0.10;1.00;;;;;;5140849;27;20722;-77
2022/12/13 02:43:53;;;;;;;17.02;11.13;;;0.00;1.00;;;;;;5140428;27;20242;-77
2022/12/13 02:46:26;;;;;;;16.95;10.77;;;0.10;1.00;;;;;;5137729;27;20238;-79
2022/12/13 02:48:59;;;;;;;20.90;11.02;;;0.20;1.00;;;;;;5131785;27;20243;-80
2022/12/13 02:51:28;;;;;;;22.05;12.07;;;0.20;1.00;;;;;;5140648;27;20700;-79
2022/12/13 02:54:06;;;;;;;22.73;11.82;;;0.10;1.00;;;;;;5140528;27;20245;-80
2022/12/13 02:56:33;;;;;;;19.40;11.45;;;0.10;1.00;;;;;;5142436;27;21045;-77
2022/12/13 02:59:13;;;;;;;17.65;11.82;;;0.10;1.00;;;;;;5142336;27;20238;-79
2022/12/13 03:02:02;;;;;;;19.98;11.20;;;0.10;1.00;;;;;;5140194;27;20227;-79
2022/12/13 03:06:28;;;;;;;19.08;12.10;;;0.00;1.00;;;;;;5137916;27;20381;-79
2022/12/13 03:07:32;;;;;;;20.20;12.55;;;0.00;1.00;;;;;;5137404;27;20382;-79
2022/12/13 03:10:12;;;;;;;23.33;12.43;;;0.00;1.00;;;;;;5141533;27;20242;-78
2022/12/13 03:15:45;;;;;;;23.10;14.27;;;0.00;1.00;;;;;;5135801;27;22575;-77
2022/12/13 03:18:15;;;;;;;19.92;12.57;;;0.00;1.00;;;;;;5137483;27;20234;-79
2022/12/13 03:20:48;;;;;;;21.67;13.57;;;0.00;1.00;;;;;;5143810;27;20231;-80
2022/12/13 03:23:25;;;;;;;20.63;12.50;;;0.00;1.00;;;;;;5139588;27;20315;-79
2022/12/13 03:25:59;;;;;;;20.60;13.80;;;0.10;1.00;;;;;;5140633;27;21110;-78
2022/12/13 03:28:26;;;;;;;19.58;12.55;;;0.10;1.00;;;;;;5139791;27;20264;-79
2022/12/13 03:30:54;;;;;;;22.10;12.32;;;0.10;1.00;;;;;;5139315;27;20431;-78
2022/12/13 03:33:23;;;;;;;20.17;11.40;;;0.10;1.00;;;;;;5139977;27;20222;-76
2022/12/13 03:35:52;;;;;;;23.15;12.98;;;0.10;1.00;;;;;;5140765;27;20320;-79
2022/12/13 03:38:23;;;;;;;22.27;13.05;;;0.20;1.00;;;;;;5143497;27;20241;-79
2022/12/13 03:40:54;;;;;;;20.27;11.48;;;0.20;1.00;;;;;;5128358;27;20292;-77
2022/12/13 03:43:23;;;;;;;22.60;14.00;;;0.20;1.00;;;;;;5132897;27;20223;-77
2022/12/13 03:45:51;;;;;;;21.40;11.68;;;0.30;1.00;;;;;;5142108;27;20990;-78
2022/12/13 03:48:22;;;;;;;17.65;12.45;;;0.20;1.00;;;;;;5137471;27;20246;-78
2022/12/13 03:50:54;;;;;;;21.08;13.45;;;0.20;1.00;;;;;;5123866;27;20239;-79
2022/12/13 03:53:27;;;;;;;20.50;12.23;;;0.20;1.00;;;;;;5120542;27;20256;-79
2022/12/13 03:55:55;;;;;;;24.42;13.35;;;0.20;1.00;;;;;;5115149;27;20348;-80
2022/12/13 03:58:23;;;;;;;23.30;13.48;;;0.20;1.00;;;;;;5121639;27;20236;-79
2022/12/13 04:00:50;;;;;;;21.10;12.93;;;0.30;1.00;;;;;;5121636;27;20223;-80
2022/12/13 04:03:21;;;;;;;20.92;11.52;;;0.40;1.00;;;;;;5121616;27;20275;-78
2022/12/13 04:05:49;;;;;;;20.30;12.05;;;0.40;1.00;;;;;;5110094;27;20243;-78
2022/12/13 04:08:22;;;;;;;19.58;12.93;;;0.40;1.00;;;;;;5120349;27;20236;-81
2022/12/13 04:10:49;;;;;;;19.42;12.75;;;0.50;1.00;;;;;;5121831;27;20243;-81
2022/12/13 04:13:33;;;;;;;20.38;12.77;;;0.50;1.00;;;;;;5122486;27;20234;-80
2022/12/13 04:16:04;;;;;;;21.17;12.45;;;0.50;1.00;;;;;;5123014;27;20239;-80
2022/12/13 04:18:32;;;;;;;19.35;12.27;;;0.50;1.00;;;;;;5094217;27;20308;-79
2022/12/13 04:21:03;;;;;;;21.88;12.65;;;0.50;1.00;;;;;;5099577;27;20289;-80
2022/12/13 04:23:31;;;;;;;23.83;13.23;;;0.40;1.00;;;;;;5116580;27;20243;-77
2022/12/13 04:26:03;;;;;;;21.35;13.10;;;0.50;1.00;;;;;;5121150;27;20231;-77
2022/12/13 04:28:31;;;;;;;20.23;13.88;;;0.50;1.00;;;;;;5103561;27;20240;-80
2022/12/13 04:31:02;;;;;;;21.02;13.30;;;0.50;1.00;;;;;;5118289;27;20238;-79
2022/12/13 04:33:32;;;;;;;20.45;13.32;;;0.50;1.00;;;;;;5121845;27;20323;-78
2022/12/13 04:36:03;;;;;;;21.33;13.77;;;0.40;1.00;;;;;;5120294;27;20227;-79
2022/12/13 04:38:32;;;;;;;21.67;13.45;;;0.50;1.00;;;;;;5093157;27;20247;-80
2022/12/13 04:41:09;;;;;;;19.67;13.55;;;0.50;1.00;;;;;;5112643;27;20750;-80
2022/12/13 04:43:36;;;;;;;21.95;12.77;;;0.50;1.00;;;;;;5116297;27;20231;-80
2022/12/13 04:46:03;;;;;;;20.63;12.85;;;0.50;1.00;;;;;;5118881;27;20240;-80
2022/12/13 04:48:33;;;;;;;20.80;14.10;;;0.40;1.00;;;;;;5118770;27;20286;-80
2022/12/13 04:51:03;;;;;;;20.63;12.52;;;0.40;1.00;;;;;;5134075;27;20280;-80
2022/12/13 04:53:32;;;;;;;22.45;12.60;;;0.40;1.00;;;;;;5137621;27;20768;-79
2022/12/13 04:56:08;;;;;;;21.38;12.85;;;0.40;1.00;;;;;;5142244;27;20242;-78
2022/12/13 04:58:35;;;;;;;18.98;11.82;;;0.40;1.00;;;;;;5141031;27;20329;-80
2022/12/13 05:01:07;;;;;;;21.85;13.95;;;0.40;1.00;;;;;;5140561;27;20215;-80
2022/12/13 05:03:45;;;;;;;18.25;13.40;;;0.40;1.00;;;;;;5138869;27;20286;-79
2022/12/13 05:06:14;;;;;;;21.20;13.82;;;0.40;1.00;;;;;;5140562;27;20941;-79
2022/12/13 05:08:45;;;;;;;21.17;14.23;;;0.40;1.00;;;;;;5136426;27;20245;-80
2022/12/13 05:11:12;;;;;;;19.50;12.63;;;0.40;1.00;;;;;;5125791;27;20238;-80
2022/12/13 05:13:46;;;;;;;19.52;12.65;;;0.40;1.00;;;;;;5131810;27;20230;-81
2022/12/13 05:16:14;;;;;;;21.23;13.60;;;0.30;1.00;;;;;;5139339;27;20262;-80
2022/12/13 05:18:45;;;;;;;22.08;14.02;;;0.30;1.00;;;;;;5138055;27;20231;-79
2022/12/13 05:21:13;;;;;;;23.92;13.90;;;0.30;1.00;;;;;;5139110;27;21082;-81
2022/12/13 05:23:53;;;;;;;17.92;11.98;;;0.30;1.00;;;;;;5137388;27;20302;-81
2022/12/13 05:26:23;;;;;;;19.05;12.90;;;0.20;1.00;;;;;;5140761;27;20953;-82
2022/12/13 05:28:51;;;;;;;18.42;12.13;;;0.20;1.00;;;;;;5136791;27;21024;-82
2022/12/13 05:31:24;;;;;;;20.15;13.13;;;0.20;1.00;;;;;;5137213;27;20244;-81
2022/12/13 05:34:02;;;;;;;21.42;13.43;;;0.20;1.00;;;;;;5126206;27;20313;-81
2022/12/13 05:36:34;;;;;;;21.02;13.48;;;0.20;1.00;;;;;;5137555;27;20240;-76
2022/12/13 05:41:50;;;;;;;16.60;10.98;;;0.20;1.00;;;;;;5114238;27;20227;-85
2022/12/13 05:44:36;;;;;;;19.75;12.05;;;0.20;1.00;;;;;;5144388;27;20241;-83
2022/12/13 05:47:26;;;;;;;;;;;;;;;;;;;;;
2022/12/13 05:53:15;;;;;;;23.38;13.85;;;0.20;1.00;;;;;;5136543;27;20289;-79
2022/12/13 05:56:15;;;;;;;18.75;12.40;;;0.20;1.00;;;;;;5135978;27;20244;-80
2022/12/13 05:58:44;;;;;;;22.25;13.25;;;0.30;1.00;;;;;;5146575;27;20230;-86
2022/12/13 06:01:18;;;;;;;20.17;13.30;;;0.40;1.00;;;;;;5141245;27;20218;-84
2022/12/13 06:09:16;;;;;;;29.50;18.83;;;0.20;1.00;;;;;;5133270;27;20257;-85
2022/12/13 06:11:53;;;;;;;20.23;12.05;;;0.20;1.00;;;;;;5137547;27;20244;-85
2022/12/13 06:14:32;;;;;;;19.98;12.13;;;0.20;1.00;;;;;;5107205;27;20228;-88
2022/12/13 06:17:04;;;;;;;18.52;10.40;;;0.20;1.00;;;;;;5138831;27;21013;-88
2022/12/13 06:19:34;;;;;;;17.42;10.68;;;0.20;1.00;;;;;;5142693;27;20237;-81
2022/12/13 06:22:13;;;;;;;17.30;11.50;;;0.20;1.00;;;;;;5145326;27;20238;-84
2022/12/13 06:24:41;;;;;;;18.17;11.63;;;0.10;1.00;;;;;;5140372;27;20276;-76
2022/12/13 06:27:13;;;;;;;18.95;10.23;;;0.10;1.00;;;;;;5119681;27;20246;-78
2022/12/13 06:29:43;;;;;;;21.02;11.57;;;0.10;1.00;;;;;;5139646;27;20230;-82
2022/12/13 06:32:20;;;;;;;17.98;11.25;;;0.10;1.00;;;;;;5142953;27;20232;-81
2022/12/13 06:34:55;;;;;;;22.13;13.00;;;0.10;1.00;;;;;;5141687;27;20222;-83
2022/12/13 06:37:25;;;;;;;21.65;12.68;;;0.10;1.00;;;;;;5145462;27;20226;-81
2022/12/13 06:39:53;;;;;;;23.65;15.07;;;0.20;1.00;;;;;;5135855;27;20249;-80
2022/12/13 06:42:21;;;;;;;22.38;14.70;;;0.30;1.00;;;;;;5140609;27;20242;-82
2022/12/13 06:44:57;;;;;;;20.27;12.85;;;0.30;1.00;;;;;;5141797;27;20242;-81
2022/12/13 06:47:34;;;;;;;23.90;12.60;;;0.20;1.00;;;;;;5143258;27;20324;-80
2022/12/13 06:50:15;;;;;;;21.67;13.35;;;0.20;1.00;;;;;;5158435;27;20446;-87
2022/12/13 06:52:57;;;;;;;21.98;13.60;;;0.30;1.00;;;;;;5148287;27;20262;-83
2022/12/13 06:55:31;;;;;;;24.77;14.02;;;0.30;1.00;;;;;;5146431;27;20265;-81
2022/12/13 06:57:59;;;;;;;29.05;12.98;;;0.30;1.00;;;;;;5146247;27;20236;-80
2022/12/13 07:00:34;;;;;;;22.70;13.20;;;0.40;1.00;;;;;;5142444;27;21008;-78
2022/12/13 07:03:03;;;;;;;21.17;13.88;;;0.40;1.00;;;;;;5143080;27;20234;-79
2022/12/13 07:05:38;;;;;;;22.67;13.88;;;0.40;1.00;;;;;;5141222;27;20298;-78
2022/12/13 07:08:13;;;;;;;20.73;11.43;;;0.40;1.00;;;;;;5141765;27;20240;-84
2022/12/13 07:10:43;;;;;;;25.65;12.13;;;0.30;1.00;;;;;;5143215;27;20243;-82
2022/12/13 07:13:16;;;;;;;28.40;13.85;;;0.20;1.00;;;;;;5140909;27;20709;-79
2022/12/13 07:15:46;;;;;;;21.23;13.05;;;0.10;1.00;;;;;;5139450;27;20228;-81
2022/12/13 07:18:16;;;;;;;21.42;13.32;;;0.10;1.00;;;;;;5138231;27;20345;-78
2022/12/13 07:20:44;;;;;;;20.85;13.10;;;0.20;1.00;;;;;;5139978;27;20243;-81
2022/12/13 07:23:13;;;;;;;21.88;12.77;;;0.20;1.00;;;;;;5136396;27;20308;-78
2022/12/13 07:25:41;;;;;;;21.92;13.25;;;0.20;1.00;;;;;;5136073;27;20253;-82
2022/12/13 07:28:13;;;;;;;29.77;13.27;;;0.20;1.00;;;;;;5140096;27;20232;-82
2022/12/13 07:30:42;;;;;;;22.25;13.65;;;0.30;1.00;;;;;;5140218;27;20315;-81
2022/12/13 07:33:15;;;;;;;21.70;12.90;;;0.40;1.00;;;;;;5144609;27;20246;-80
2022/12/13 07:35:43;;;;;;;22.48;13.63;;;0.40;1.00;;;;;;5145884;27;20248;-79
2022/12/13 07:38:14;;;;;;;23.95;14.48;;;0.40;1.00;;;;;;5146667;27;20216;-79
2022/12/13 07:40:41;;;;;;;23.70;14.30;;;0.40;1.00;;;;;;5141071;27;20276;-80
2022/12/13 07:43:14;;;;;;;23.77;13.63;;;0.30;1.00;;;;;;5140259;27;20241;-81
2022/12/13 07:45:41;;;;;;;24.17;14.57;;;0.20;1.00;;;;;;5124673;27;20248;-79
2022/12/13 07:48:15;;;;;;;31.63;19.17;;;0.20;1.00;;;;;;5142740;27;20231;-80
2022/12/13 07:50:43;;;;;;;22.98;14.27;;;0.30;1.00;;;;;;5139116;27;20235;-81
2022/12/13 07:53:13;;;;;;;21.55;12.93;;;0.40;1.00;;;;;;5143176;27;21009;-80
2022/12/13 07:55:40;;;;;;;24.52;15.27;;;0.40;1.00;;;;;;5143645;27;21138;-80
2022/12/13 07:58:14;;;;;;;26.05;16.30;;;0.30;1.00;;;;;;5142063;27;20244;-80
2022/12/13 08:00:43;;;;;;;20.52;12.85;;;0.40;1.00;;;;;;5128426;27;20248;-80
2022/12/13 08:03:17;;;;;;;23.23;14.15;;;0.30;1.00;;;;;;5142308;27;20234;-80
2022/12/13 08:05:44;;;;;;;25.02;14.65;;;0.40;1.00;;;;;;5137691;27;21096;-80
2022/12/13 08:08:14;;;;;;;24.20;14.90;;;0.40;1.00;;;;;;5142305;27;20218;-79
2022/12/13 08:10:41;;;;;;;21.73;13.15;;;0.40;1.00;;;;;;5140155;27;21168;-80
2022/12/13 08:13:14;;;;;;;23.38;14.57;;;0.30;1.00;;;;;;5145255;27;20244;-78
2022/12/13 08:15:41;;;;;;;24.50;14.63;;;0.30;1.00;;;;;;5138956;27;21151;-77
2022/12/13 08:18:12;;;;;;;21.77;13.35;;;0.30;1.00;;;;;;5140834;27;20725;-76
2022/12/13 08:20:40;;;;;;;27.20;14.93;;;0.30;1.00;;;;;;5142505;27;20231;-81
2022/12/13 08:23:12;;;;;;;26.42;15.82;;;0.30;1.00;;;;;;5144611;27;20281;-83
2022/12/13 08:25:41;;;;;;;24.58;15.30;;;0.30;1.00;;;;;;5140441;27;20233;-81
2022/12/13 08:28:13;;;;;;;24.58;16.20;;;0.30;1.00;;;;;;5144914;27;20236;-78
2022/12/13 08:30:40;;;;;;;25.80;16.00;;;0.30;1.00;;;;;;5128812;27;20235;-79
2022/12/13 08:33:14;;;;;;;24.70;16.00;;;0.30;1.00;;;;;;5136975;27;22215;-82
2022/12/13 08:35:45;;;;;;;24.00;14.90;;;0.30;1.00;;;;;;5136970;27;20241;-82
2022/12/13 08:38:15;;;;;;;23.20;15.20;;;0.30;1.00;;;;;;5137303;27;20218;-83
2022/12/13 08:40:42;;;;;;;24.75;15.38;;;0.30;1.00;;;;;;5134548;27;20234;-82
2022/12/13 08:43:10;;;;;;;19.13;13.13;;;0.30;1.00;;;;;;5138066;27;20232;-82
2022/12/13 08:45:37;;;;;;;24.90;15.15;;;0.30;1.00;;;;;;5135720;27;20327;-83
2022/12/13 08:48:05;;;;;;;22.67;13.85;;;0.30;1.00;;;;;;5135364;27;20241;-79
2022/12/13 08:50:35;;;;;;;24.52;14.30;;;0.30;1.00;;;;;;5136983;27;21005;-81
2022/12/13 08:53:04;;;;;;;24.05;13.98;;;0.30;1.00;;;;;;5129624;27;20274;-81
2022/12/13 08:55:32;;;;;;;22.70;14.55;;;0.30;1.00;;;;;;5132016;27;20247;-81
2022/12/13 08:57:59;;;;;;;25.77;14.85;;;0.20;1.00;;;;;;5137522;27;20247;-83
2022/12/13 09:00:26;;;;;;;25.55;14.15;;;0.30;1.00;;;;;;5135414;27;20238;-80
2022/12/13 09:02:57;;;;;;;25.00;14.38;;;0.30;1.00;;;;;;5137696;27;20329;-83
2022/12/13 09:05:24;;;;;;;24.20;14.13;;;0.30;1.00;;;;;;5137394;27;20243;-83
2022/12/13 09:07:56;;;;;;;22.60;14.13;;;0.30;1.00;;;;;;5133551;27;20290;-82
2022/12/13 09:10:25;;;;;;;21.25;12.88;;;0.40;1.00;;;;;;5133115;27;20238;-84
2022/12/13 09:12:54;;;;;;;25.25;15.38;;;0.40;1.00;;;;;;5123189;27;20342;-81
2022/12/13 09:15:21;;;;;;;23.80;15.82;;;0.40;1.00;;;;;;5136064;27;20235;-82
2022/12/13 09:17:50;;;;;;;24.70;14.70;;;0.60;1.00;;;;;;5140177;27;20231;-83
2022/12/13 09:20:18;;;;;;;24.92;14.73;;;0.50;1.00;;;;;;5136956;27;20231;-84
2022/12/13 09:22:46;;;;;;;26.48;14.45;;;0.60;1.00;;;;;;5141785;27;20283;-83
2022/12/13 09:25:13;;;;;;;27.13;15.43;;;0.60;1.00;;;;;;5138797;27;20345;-84
2022/12/13 09:27:42;;;;;;;22.67;14.75;;;0.60;1.00;;;;;;5139932;27;20218;-84
2022/12/13 09:30:16;;;;;;;23.33;15.00;;;0.70;1.00;;;;;;5143074;27;20243;-80
2022/12/13 09:32:48;;;;;;;22.83;14.00;;;0.70;1.00;;;;;;5140615;27;20244;-80
2022/12/13 09:35:18;;;;;;;23.23;15.07;;;0.70;1.00;;;;;;5141673;27;21129;-81
2022/12/13 09:37:46;;;;;;;21.52;13.90;;;0.70;1.00;;;;;;5141730;27;20226;-79
2022/12/13 09:40:21;;;;;;;26.42;15.27;;;0.80;1.00;;;;;;5144967;27;20211;-81
2022/12/13 09:42:57;;;;;;;23.75;13.68;;;0.80;1.00;;;;;;5143374;27;20279;-81
2022/12/13 09:45:25;;;;;;;23.50;13.25;;;0.80;1.00;;;;;;5142015;27;20234;-82
2022/12/13 09:47:57;;;;;;;22.17;14.27;;;0.90;1.00;;;;;;5147346;27;20222;-83
2022/12/13 09:50:33;;;;;;;23.08;15.02;;;1.00;1.00;;;;;;5140628;27;20231;-83
2022/12/13 09:53:05;;;;;;;20.10;13.40;;;1.00;1.00;;;;;;5145081;27;20231;-81
2022/12/13 09:55:39;;;;;;;20.55;12.93;;;0.90;1.00;;;;;;5146845;27;20230;-82
2022/12/13 09:58:16;;;;;;;21.63;13.65;;;0.90;1.00;;;;;;5138377;27;20241;-82
2022/12/13 10:00:43;;;;;;;21.90;13.00;;;0.90;1.00;;;;;;5146234;27;20234;-83
2022/12/13 10:03:17;;;;;;;21.88;13.23;;;0.80;1.00;;;;;;5144424;27;20565;-81
2022/12/13 10:05:53;;;;;;;23.27;15.02;;;0.90;1.00;;;;;;5146170;27;20241;-82
2022/12/13 10:08:24;;;;;;;23.10;14.88;;;0.80;1.00;;;;;;5140974;27;20230;-83
2022/12/13 10:10:54;;;;;;;19.85;12.30;;;0.80;1.00;;;;;;5143416;27;20257;-81
2022/12/13 10:13:35;;;;;;;26.65;14.48;;;0.80;1.00;;;;;;5143108;27;20321;-81
2022/12/13 10:16:06;;;;;;;25.05;15.57;;;0.80;1.00;;;;;;5139518;27;20238;-78
2022/12/13 10:18:39;;;;;;;21.80;14.10;;;0.70;1.00;;;;;;5141072;27;20241;-79
2022/12/13 10:21:17;;;;;;;23.67;15.45;;;0.70;1.00;;;;;;5143327;27;20242;-78
2022/12/13 10:23:44;;;;;;;22.05;14.00;;;0.70;1.00;;;;;;5119577;27;21042;-81
2022/12/13 10:26:14;;;;;;;25.30;14.60;;;0.70;1.00;;;;;;5145986;27;20225;-81
2022/12/13 10:28:44;;;;;;;30.77;15.88;;;0.70;1.00;;;;;;5146087;27;20303;-83
2022/12/13 10:31:18;;;;;;;23.95;15.80;;;0.70;1.00;;;;;;5145699;27;20229;-82
2022/12/13 10:33:56;;;;;;;23.75;15.20;;;0.70;1.00;;;;;;5139083;27;20296;-82
2022/12/13 10:36:37;;;;;;;30.95;20.70;;;0.70;1.00;;;;;;5142230;27;20242;-82
2022/12/13 10:39:05;;;;;;;24.20;15.25;;;0.80;1.00;;;;;;5141027;27;20243;-86
2022/12/13 10:41:38;;;;;;;20.92;14.57;;;0.90;1.00;;;;;;5149788;27;20239;-86
2022/12/13 10:47:33;;;;;;;22.42;14.15;;;1.00;1.00;;;;;;5145377;27;20265;-85
2022/12/13 10:52:58;;;;;;;21.20;13.90;;;1.10;1.00;;;;;;4825511;25;20717;-83
2022/12/13 10:55:34;;;;;;;19.02;11.55;;;1.00;1.00;;;;;;5126004;27;20266;-84
2022/12/13 10:58:05;;;;;;;21.52;13.68;;;1.00;1.00;;;;;;5145255;27;20235;-84
2022/12/13 11:00:39;;;;;;;18.90;13.05;;;1.00;1.00;;;;;;5139406;27;20238;-83
2022/12/13 11:03:32;;;;;;;22.88;13.35;;;1.00;1.00;;;;;;5158315;27;20234;-82
2022/12/13 11:06:05;;;;;;;22.13;13.20;;;1.00;1.00;;;;;;5144808;27;20260;-82
2022/12/13 11:08:35;;;;;;;20.63;13.55;;;1.00;1.00;;;;;;5141022;27;20227;-81
2022/12/13 11:11:05;;;;;;;22.05;13.25;;;1.00;1.00;;;;;;5150029;27;20227;-85
2022/12/13 11:13:39;;;;;;;19.05;11.55;;;1.00;1.00;;;;;;5151828;27;20226;-80
2022/12/13 11:16:22;;;;;;;19.67;11.50;;;1.00;1.00;;;;;;5146190;27;20912;-85
2022/12/13 11:18:58;;;;;;;19.30;12.90;;;1.00;1.00;;;;;;5132110;27;20227;-82
2022/12/13 11:21:29;;;;;;;20.25;13.45;;;1.10;1.00;;;;;;5145114;27;20238;-83
2022/12/13 11:24:04;;;;;;;27.33;14.32;;;1.10;1.00;;;;;;5148624;27;20286;-84
2022/12/13 11:26:41;;;;;;;20.30;12.48;;;1.20;1.00;;;;;;5148930;27;20278;-84
2022/12/13 11:29:42;;;;;;;20.17;13.18;;;1.20;1.00;;;;;;5148565;27;20234;-83
2022/12/13 11:32:27;;;;;;;21.85;13.15;;;1.20;1.00;;;;;;5151025;27;20226;-81
2022/12/13 11:35:03;;;;;;;21.80;13.90;;;1.20;1.00;;;;;;5143251;27;20235;-83
2022/12/13 11:37:43;;;;;;;25.98;14.23;;;1.20;1.00;;;;;;5149354;27;20215;-85
2022/12/13 11:40:24;;;;;;;20.60;13.35;;;1.20;1.00;;;;;;5147309;27;20401;-86
2022/12/13 11:43:02;;;;;;;29.02;17.35;;;1.20;1.00;;;;;;5133527;27;20222;-83
2022/12/13 11:45:55;;;;;;;24.23;13.65;;;1.30;1.00;;;;;;5133430;27;20238;-83
2022/12/13 11:48:34;;;;;;;22.45;14.73;;;1.30;1.00;;;;;;5130542;27;20266;-83
2022/12/13 11:51:02;;;;;;;19.80;13.02;;;1.40;1.00;;;;;;5145502;27;20231;-78
2022/12/13 11:53:46;;;;;;;22.52;14.88;;;1.40;1.00;;;;;;5150318;27;20222;-78
2022/12/13 11:56:20;;;;;;;21.20;14.02;;;1.50;1.00;;;;;;5141585;27;20215;-81
2022/12/13 11:59:14;;;;;;;21.08;13.48;;;1.50;1.00;;;;;;5146566;27;20368;-83
2022/12/13 12:01:53;;;;;;;20.40;14.00;;;1.40;1.00;;;;;;5143066;27;20227;-83
2022/12/13 12:04:34;;;;;;;23.17;12.02;;;1.40;1.00;;;;;;5133468;27;20238;-82
2022/12/13 12:09:59;;;;;;;21.30;11.93;;;1.40;1.00;;;;;;5137672;27;20295;-82
2022/12/13 12:12:35;;;;;;;21.98;13.07;;;1.40;1.00;;;;;;5139409;27;20230;-78
2022/12/13 12:15:14;;;;;;;22.17;12.65;;;1.30;1.00;;;;;;5139206;27;20238;-78
2022/12/13 12:17:43;;;;;;;19.38;14.05;;;1.40;1.00;;;;;;5141155;27;20238;-81
2022/12/13 12:20:19;;;;;;;22.00;12.68;;;1.40;1.00;;;;;;5145175;27;20229;-81
2022/12/13 12:23:00;;;;;;;20.05;12.90;;;1.40;1.00;;;;;;5136016;27;20235;-84
2022/12/13 12:25:44;;;;;;;22.70;14.52;;;1.40;1.00;;;;;;5142603;27;20223;-78
2022/12/13 12:28:34;;;;;;;21.23;13.75;;;1.40;1.00;;;;;;5142300;27;20304;-82
2022/12/13 12:31:14;;;;;;;21.45;13.70;;;1.40;1.00;;;;;;5134557;27;21012;-81
2022/12/13 12:33:54;;;;;;;22.30;14.45;;;1.50;1.00;;;;;;5139317;27;20609;-78
2022/12/13 12:36:47;;;;;;;21.33;14.20;;;1.40;1.00;;;;;;5146884;27;21973;-81
2022/12/13 12:39:43;;;;;;;19.75;11.98;;;1.30;1.00;;;;;;5142531;27;20231;-79
2022/12/13 12:42:38;;;;;;;26.13;14.40;;;1.30;1.00;;;;;;5140709;27;20230;-77
2022/12/13 12:45:23;;;;;;;23.08;12.55;;;1.30;1.00;;;;;;5153116;27;20226;-81
2022/12/13 12:48:15;;;;;;;24.05;12.30;;;1.40;1.00;;;;;;5146625;27;20248;-84
2022/12/13 12:50:54;;;;;;;22.50;13.10;;;1.50;1.00;;;;;;5139290;27;20233;-82
2022/12/13 12:53:44;;;;;;;18.35;12.10;;;1.50;1.00;;;;;;5139200;27;20323;-83
2022/12/13 12:59:27;;;;;;;18.33;12.13;;;1.40;1.00;;;;;;5140466;27;20296;-77
2022/12/13 13:02:03;;;;;;;21.98;13.20;;;1.40;1.00;;;;;;5129235;27;20238;-79
2022/12/13 13:04:47;;;;;;;22.27;12.55;;;1.40;1.00;;;;;;5145381;27;20297;-78
2022/12/13 13:07:19;;;;;;;21.00;13.57;;;1.40;1.00;;;;;;5142245;27;20237;-82
2022/12/13 13:09:54;;;;;;;20.25;13.43;;;1.40;1.00;;;;;;5144907;27;20238;-79
2022/12/13 13:12:23;;;;;;;25.70;15.95;;;1.40;1.00;;;;;;5129742;27;20234;-81
2022/12/13 13:14:55;;;;;;;17.25;12.15;;;1.30;1.00;;;;;;5139786;27;20242;-84
2022/12/13 13:17:47;;;;;;;20.92;12.00;;;1.30;1.00;;;;;;5136310;27;20285;-78
2022/12/13 13:20:34;;;;;;;19.63;12.60;;;1.30;1.00;;;;;;5141712;27;21048;-80
2022/12/13 13:23:28;;;;;;;20.48;12.63;;;1.30;1.00;;;;;;5143048;27;20245;-78
2022/12/13 13:25:57;;;;;;;17.77;11.35;;;1.40;1.00;;;;;;5146069;27;20300;-77
2022/12/13 13:28:27;;;;;;;18.67;12.15;;;1.40;1.00;;;;;;5139973;27;20246;-80
2022/12/13 13:31:06;;;;;;;21.30;13.10;;;1.50;1.00;;;;;;5129979;27;20230;-79
2022/12/13 13:33:47;;;;;;;19.80;10.45;;;1.50;1.00;;;;;;5139256;27;20235;-79
2022/12/13 13:39:56;;;;;;;18.30;11.20;;;1.20;1.00;;;;;;5139982;27;20222;-81
2022/12/13 13:42:34;;;;;;;20.02;12.55;;;1.10;1.00;;;;;;5136884;27;20328;-79
2022/12/13 13:45:26;;;;;;;20.60;11.73;;;1.20;1.00;;;;;;5139507;27;21054;-81
2022/12/13 13:48:12;;;;;;;17.15;11.45;;;1.20;1.00;;;;;;5140759;27;20230;-80
2022/12/13 13:51:28;;;;;;;25.15;13.55;;;1.20;1.00;;;;;;5137998;27;20344;-79
2022/12/13 13:54:30;;;;;;;17.52;11.00;;;1.20;1.00;;;;;;5094677;27;20264;-82